sensor_id;sensor_type;location;lat;lon;timestamp;pressure;altitude;pressure_sealevel;temperature;humidity
4972;BME280;2501;51.214;6.768;2022-12-29T00:01:44;100054.72;;;9.78;100.00
4972;BME280;2501;51.214;6.768;2022-12-29T00:04:14;100055.59;;;9.84;100.00
4972;BME280;2501;51.214;6.768;2022-12-29T00:06:42;100045.97;;;9.86;100.00
4972;BME280;2501;51.214;6.768;2022-12-29T00:09:15;100025.91;;;9.83;100.00
4972;BME280;2501;51.214;6.768;2022-12-29T00:11:44;100029.41;;;9.85;100.00
4972;BME280;2501;51.214;6.768;2022-12-29T00:14:12;100025.91;;;9.83;100.00
4972;BME280;2501;51.214;6.768;2022-12-29T00:16:53;100020.63;;;9.89;100.00
4972;BME280;2501;51.214;6.768;2022-12-29T00:19:22;100008.41;;;9.88;100.00
4972;BME280;2501;51.214;6.768;2022-12-29T00:22:04;100008.41;;;9.93;100.00
4972;BME280;2501;51.214;6.768;2022-12-29T00:24:47;100012.75;;;9.94;100.00
4972;BME280;2501;51.214;6.768;2022-12-29T00:27:29;100016.25;;;9.94;100.00
4972;BME280;2501;51.214;6.768;2022-12-29T00:30:12;100005.78;;;9.94;100.00
4972;BME280;2501;51.214;6.768;2022-12-29T00:32:53;99999.66;;;9.97;100.00
4972;BME280;2501;51.214;6.768;2022-12-29T00:35:39;99985.63;;;10.05;100.00
4972;BME280;2501;51.214;6.768;2022-12-29T00:38:12;100000.44;;;10.22;100.00
4972;BME280;2501;51.214;6.768;2022-12-29T00:40:56;99999.56;;;10.26;100.00
4972;BME280;2501;51.214;6.768;2022-12-29T00:43:36;99994.31;;;10.29;99.74
4972;BME280;2501;51.214;6.768;2022-12-29T00:46:17;99990.81;;;10.31;99.38
4972;BME280;2501;51.214;6.768;2022-12-29T00:48:46;99977.69;;;10.37;98.84
4972;BME280;2501;51.214;6.768;2022-12-29T00:51:27;99975.00;;;10.46;98.28
4972;BME280;2501;51.214;6.768;2022-12-29T00:53:55;99974.13;;;10.44;97.94
4972;BME280;2501;51.214;6.768;2022-12-29T00:56:26;99969.75;;;10.48;97.66
4972;BME280;2501;51.214;6.768;2022-12-29T00:58:54;99977.59;;;10.48;97.41
4972;BME280;2501;51.214;6.768;2022-12-29T01:01:23;99978.47;;;10.47;97.47
4972;BME280;2501;51.214;6.768;2022-12-29T01:03:52;99971.47;;;10.55;97.19
4972;BME280;2501;51.214;6.768;2022-12-29T01:06:20;99971.47;;;10.54;96.86
4972;BME280;2501;51.214;6.768;2022-12-29T01:08:49;99968.72;;;10.72;95.73
4972;BME280;2501;51.214;6.768;2022-12-29T01:11:41;99979.13;;;10.79;94.77
4972;BME280;2501;51.214;6.768;2022-12-29T01:14:07;99966.88;;;10.81;94.34
4972;BME280;2501;51.214;6.768;2022-12-29T01:16:36;99972.97;;;10.87;93.89
4972;BME280;2501;51.214;6.768;2022-12-29T01:19:04;99971.88;;;11.09;92.64
4972;BME280;2501;51.214;6.768;2022-12-29T01:21:33;99973.63;;;11.10;91.75
4972;BME280;2501;51.214;6.768;2022-12-29T01:24:02;99982.47;;;11.01;92.01
4972;BME280;2501;51.214;6.768;2022-12-29T01:26:30;99973.75;;;10.99;92.31
4972;BME280;2501;51.214;6.768;2022-12-29T01:29:01;99973.63;;;11.13;91.55
4972;BME280;2501;51.214;6.768;2022-12-29T01:31:30;99965.84;;;11.02;91.15
4972;BME280;2501;51.214;6.768;2022-12-29T01:33:58;99961.38;;;11.10;90.62
4972;BME280;2501;51.214;6.768;2022-12-29T01:36:27;99973.69;;;11.05;90.89
4972;BME280;2501;51.214;6.768;2022-12-29T01:38:55;99969.34;;;11.03;90.78
4972;BME280;2501;51.214;6.768;2022-12-29T01:41:24;99964.97;;;11.00;90.74
4972;BME280;2501;51.214;6.768;2022-12-29T01:43:54;99965.78;;;11.08;90.09
4972;BME280;2501;51.214;6.768;2022-12-29T01:46:30;99969.38;;;10.98;90.31
4972;BME280;2501;51.214;6.768;2022-12-29T01:49:05;99965.78;;;11.08;89.72
4972;BME280;2501;51.214;6.768;2022-12-29T01:51:41;99951.84;;;11.05;89.35
4972;BME280;2501;51.214;6.768;2022-12-29T01:54:15;99956.19;;;11.06;88.86
4972;BME280;2501;51.214;6.768;2022-12-29T01:56:45;99947.47;;;11.05;88.51
4972;BME280;2501;51.214;6.768;2022-12-29T01:59:17;99938.59;;;11.17;87.60
4972;BME280;2501;51.214;6.768;2022-12-29T02:01:50;99943.94;;;11.08;87.51
4972;BME280;2501;51.214;6.768;2022-12-29T02:04:18;99946.59;;;11.02;87.67
4972;BME280;2501;51.214;6.768;2022-12-29T02:06:51;99938.66;;;11.09;87.50
4972;BME280;2501;51.214;6.768;2022-12-29T02:09:21;99923.75;;;11.14;86.83
4972;BME280;2501;51.214;6.768;2022-12-29T02:11:50;99931.63;;;11.14;86.52
4972;BME280;2501;51.214;6.768;2022-12-29T02:14:19;99936.09;;;11.05;86.37
4972;BME280;2501;51.214;6.768;2022-12-29T02:17:01;99933.47;;;11.03;86.16
4972;BME280;2501;51.214;6.768;2022-12-29T02:20:11;99945.63;;;11.10;85.13
4972;BME280;2501;51.214;6.768;2022-12-29T02:22:58;99938.63;;;11.12;84.87
4972;BME280;2501;51.214;6.768;2022-12-29T02:25:52;99922.81;;;11.20;83.77
4972;BME280;2501;51.214;6.768;2022-12-29T02:28:46;99920.97;;;11.28;82.63
4972;BME280;2501;51.214;6.768;2022-12-29T02:31:25;99921.84;;;11.27;82.30
4972;BME280;2501;51.214;6.768;2022-12-29T02:34:06;99920.13;;;11.26;82.18
4972;BME280;2501;51.214;6.768;2022-12-29T02:36:43;99916.69;;;11.21;82.26
4972;BME280;2501;51.214;6.768;2022-12-29T02:39:20;99903.47;;;11.29;81.95
4972;BME280;2501;51.214;6.768;2022-12-29T02:41:57;99918.34;;;11.28;81.97
4972;BME280;2501;51.214;6.768;2022-12-29T02:44:36;99914.81;;;11.32;81.62
4972;BME280;2501;51.214;6.768;2022-12-29T02:47:16;99907.84;;;11.28;81.67
4972;BME280;2501;51.214;6.768;2022-12-29T02:49:55;99899.09;;;11.28;81.94
4972;BME280;2501;51.214;6.768;2022-12-29T02:52:30;99899.97;;;11.30;82.18
4972;BME280;2501;51.214;6.768;2022-12-29T02:54:59;99891.19;;;11.32;82.03
4972;BME280;2501;51.214;6.768;2022-12-29T02:57:30;99885.13;;;11.26;82.83
4972;BME280;2501;51.214;6.768;2022-12-29T03:00:03;99886.06;;;11.20;82.99
4972;BME280;2501;51.214;6.768;2022-12-29T03:02:58;99885.09;;;11.27;82.90
4972;BME280;2501;51.214;6.768;2022-12-29T03:05:42;99885.03;;;11.35;82.58
4972;BME280;2501;51.214;6.768;2022-12-29T03:08:19;99887.72;;;11.29;82.93
4972;BME280;2501;51.214;6.768;2022-12-29T03:10:59;99872.84;;;11.29;83.29
4972;BME280;2501;51.214;6.768;2022-12-29T03:13:32;99879.03;;;11.25;83.78
4972;BME280;2501;51.214;6.768;2022-12-29T03:16:20;99875.47;;;11.29;83.82
4972;BME280;2501;51.214;6.768;2022-12-29T03:19:01;99870.22;;;11.29;83.85
4972;BME280;2501;51.214;6.768;2022-12-29T03:21:34;99874.69;;;11.23;84.12
4972;BME280;2501;51.214;6.768;2022-12-29T03:24:17;99865.06;;;11.23;84.17
4972;BME280;2501;51.214;6.768;2022-12-29T03:26:49;99861.56;;;11.23;84.33
4972;BME280;2501;51.214;6.768;2022-12-29T03:29:21;99862.41;;;11.25;84.58
4972;BME280;2501;51.214;6.768;2022-12-29T03:31:51;99861.41;;;11.33;84.03
4972;BME280;2501;51.214;6.768;2022-12-29T03:34:23;99860.56;;;11.33;83.77
4972;BME280;2501;51.214;6.768;2022-12-29T03:37:00;99852.66;;;11.36;83.77
4972;BME280;2501;51.214;6.768;2022-12-29T03:39:31;99856.13;;;11.38;83.52
4972;BME280;2501;51.214;6.768;2022-12-29T03:42:02;99856.81;;;11.52;83.00
4972;BME280;2501;51.214;6.768;2022-12-29T03:44:35;99850.91;;;11.35;83.57
4972;BME280;2501;51.214;6.768;2022-12-29T03:47:05;99854.34;;;11.40;83.79
4972;BME280;2501;51.214;6.768;2022-12-29T03:49:37;99844.78;;;11.36;83.72
4972;BME280;2501;51.214;6.768;2022-12-29T03:52:06;99853.47;;;11.41;83.73
4972;BME280;2501;51.214;6.768;2022-12-29T03:54:35;99848.22;;;11.39;83.96
4972;BME280;2501;51.214;6.768;2022-12-29T03:57:03;99833.28;;;11.43;83.64
4972;BME280;2501;51.214;6.768;2022-12-29T03:59:31;99827.97;;;11.50;83.25
4972;BME280;2501;51.214;6.768;2022-12-29T04:02:00;99825.25;;;11.57;82.87
4972;BME280;2501;51.214;6.768;2022-12-29T04:04:28;99810.47;;;11.48;83.45
4972;BME280;2501;51.214;6.768;2022-12-29T04:06:59;99820.06;;;11.50;83.33
4972;BME280;2501;51.214;6.768;2022-12-29T04:09:28;99809.75;;;11.37;84.31
4972;BME280;2501;51.214;6.768;2022-12-29T04:11:56;99814.13;;;11.36;84.45
4972;BME280;2501;51.214;6.768;2022-12-29T04:14:25;99833.34;;;11.40;84.24
4972;BME280;2501;51.214;6.768;2022-12-29T04:16:53;99834.28;;;11.36;84.16
4972;BME280;2501;51.214;6.768;2022-12-29T04:19:22;99838.59;;;11.40;83.99
4972;BME280;2501;51.214;6.768;2022-12-29T04:21:50;99848.13;;;11.47;83.31
4972;BME280;2501;51.214;6.768;2022-12-29T04:24:21;99854.22;;;11.49;83.08
4972;BME280;2501;51.214;6.768;2022-12-29T04:26:49;99842.94;;;11.42;83.25
4972;BME280;2501;51.214;6.768;2022-12-29T04:29:18;99855.06;;;11.54;82.89
4972;BME280;2501;51.214;6.768;2022-12-29T04:31:46;99853.19;;;11.61;81.89
4972;BME280;2501;51.214;6.768;2022-12-29T04:34:15;99839.38;;;11.46;82.07
4972;BME280;2501;51.214;6.768;2022-12-29T04:36:43;99842.91;;;11.44;82.50
4972;BME280;2501;51.214;6.768;2022-12-29T04:39:12;99840.22;;;11.48;81.80
4972;BME280;2501;51.214;6.768;2022-12-29T04:41:43;99840.16;;;11.56;80.75
4972;BME280;2501;51.214;6.768;2022-12-29T04:44:11;99840.81;;;11.72;79.86
4972;BME280;2501;51.214;6.768;2022-12-29T04:46:40;99847.88;;;11.68;79.57
4972;BME280;2501;51.214;6.768;2022-12-29T04:49:08;99837.44;;;11.61;79.72
4972;BME280;2501;51.214;6.768;2022-12-29T04:51:36;99852.34;;;11.60;79.66
4972;BME280;2501;51.214;6.768;2022-12-29T04:54:05;99847.00;;;11.66;79.63
4972;BME280;2501;51.214;6.768;2022-12-29T04:56:34;99854.81;;;11.74;79.12
4972;BME280;2501;51.214;6.768;2022-12-29T04:59:07;99854.78;;;11.75;78.91
4972;BME280;2501;51.214;6.768;2022-12-29T05:01:35;99851.34;;;11.69;79.10
4972;BME280;2501;51.214;6.768;2022-12-29T05:04:04;99846.91;;;11.75;78.71
4972;BME280;2501;51.214;6.768;2022-12-29T05:06:32;99859.19;;;11.76;78.31
4972;BME280;2501;51.214;6.768;2022-12-29T05:09:01;99856.56;;;11.76;78.46
4972;BME280;2501;51.214;6.768;2022-12-29T05:11:29;99860.16;;;11.66;78.88
4972;BME280;2501;51.214;6.768;2022-12-29T05:13:57;99857.47;;;11.71;78.89
4972;BME280;2501;51.214;6.768;2022-12-29T05:16:28;99864.50;;;11.67;78.74
4972;BME280;2501;51.214;6.768;2022-12-29T05:18:57;99881.06;;;11.77;78.47
4972;BME280;2501;51.214;6.768;2022-12-29T05:21:25;99866.19;;;11.76;77.95
4972;BME280;2501;51.214;6.768;2022-12-29T05:23:54;99868.75;;;11.80;77.79
4972;BME280;2501;51.214;6.768;2022-12-29T05:26:22;99868.00;;;11.69;78.60
4972;BME280;2501;51.214;6.768;2022-12-29T05:28:51;99870.63;;;11.69;78.55
4972;BME280;2501;51.214;6.768;2022-12-29T05:31:20;99874.22;;;11.61;79.11
4972;BME280;2501;51.214;6.768;2022-12-29T05:33:51;99868.25;;;11.48;79.78
4972;BME280;2501;51.214;6.768;2022-12-29T05:36:19;99870.13;;;11.37;80.20
4972;BME280;2501;51.214;6.768;2022-12-29T05:38:48;99863.91;;;11.44;80.00
4972;BME280;2501;51.214;6.768;2022-12-29T05:41:17;99862.31;;;11.31;80.58
4972;BME280;2501;51.214;6.768;2022-12-29T05:43:45;99855.31;;;11.31;80.51
4972;BME280;2501;51.214;6.768;2022-12-29T05:46:13;99859.59;;;11.40;79.98
4972;BME280;2501;51.214;6.768;2022-12-29T05:48:42;99867.50;;;11.37;79.91
4972;BME280;2501;51.214;6.768;2022-12-29T05:51:13;99864.84;;;11.41;79.70
4972;BME280;2501;51.214;6.768;2022-12-29T05:53:41;99873.66;;;11.36;79.74
4972;BME280;2501;51.214;6.768;2022-12-29T05:56:10;99868.34;;;11.42;79.55
4972;BME280;2501;51.214;6.768;2022-12-29T05:58:38;99877.03;;;11.44;79.05
4972;BME280;2501;51.214;6.768;2022-12-29T06:01:07;99883.94;;;11.56;77.98
4972;BME280;2501;51.214;6.768;2022-12-29T06:03:35;99894.47;;;11.51;77.73
4972;BME280;2501;51.214;6.768;2022-12-29T06:06:04;99889.28;;;11.46;78.14
4972;BME280;2501;51.214;6.768;2022-12-29T06:08:35;99892.72;;;11.50;77.35
4972;BME280;2501;51.214;6.768;2022-12-29T06:11:04;99902.41;;;11.45;77.46
4972;BME280;2501;51.214;6.768;2022-12-29T06:13:32;99905.22;;;11.28;78.09
4972;BME280;2501;51.214;6.768;2022-12-29T06:16:01;99900.03;;;11.24;78.43
4972;BME280;2501;51.214;6.768;2022-12-29T06:18:30;99898.47;;;11.06;79.44
4972;BME280;2501;51.214;6.768;2022-12-29T06:20:59;99893.97;;;11.15;79.11
4972;BME280;2501;51.214;6.768;2022-12-29T06:23:28;99905.38;;;11.13;79.02
4972;BME280;2501;51.214;6.768;2022-12-29T06:25:59;99905.34;;;11.18;79.33
4972;BME280;2501;51.214;6.768;2022-12-29T06:28:27;99922.78;;;11.23;78.86
4972;BME280;2501;51.214;6.768;2022-12-29T06:30:56;99937.75;;;11.13;79.17
4972;BME280;2501;51.214;6.768;2022-12-29T06:33:24;99939.59;;;11.04;79.66
4972;BME280;2501;51.214;6.768;2022-12-29T06:35:52;99944.84;;;11.02;79.91
4972;BME280;2501;51.214;6.768;2022-12-29T06:38:21;99943.00;;;11.13;79.52
4972;BME280;2501;51.214;6.768;2022-12-29T06:40:49;99958.69;;;11.20;79.44
4972;BME280;2501;51.214;6.768;2022-12-29T06:43:20;99955.22;;;11.16;79.08
4972;BME280;2501;51.214;6.768;2022-12-29T06:45:49;99943.91;;;11.09;78.85
4972;BME280;2501;51.214;6.768;2022-12-29T06:48:17;99954.41;;;11.09;78.75
4972;BME280;2501;51.214;6.768;2022-12-29T06:50:46;99934.19;;;11.21;77.84
4972;BME280;2501;51.214;6.768;2022-12-29T06:53:14;99946.44;;;11.22;77.29
4972;BME280;2501;51.214;6.768;2022-12-29T06:55:43;99957.94;;;11.05;77.73
4972;BME280;2501;51.214;6.768;2022-12-29T06:58:11;99949.06;;;11.19;76.93
4972;BME280;2501;51.214;6.768;2022-12-29T07:00:42;99956.09;;;11.18;76.64
4972;BME280;2501;51.214;6.768;2022-12-29T07:03:10;99962.19;;;11.20;76.81
4972;BME280;2501;51.214;6.768;2022-12-29T07:05:39;99957.81;;;11.19;76.72
4972;BME280;2501;51.214;6.768;2022-12-29T07:08:07;99957.84;;;11.18;76.82
4972;BME280;2501;51.214;6.768;2022-12-29T07:10:36;99967.44;;;11.22;76.55
4972;BME280;2501;51.214;6.768;2022-12-29T07:13:04;99960.59;;;11.01;77.18
4972;BME280;2501;51.214;6.768;2022-12-29T07:15:33;99966.72;;;11.01;77.73
4972;BME280;2501;51.214;6.768;2022-12-29T07:18:04;99968.44;;;11.05;77.06
4972;BME280;2501;51.214;6.768;2022-12-29T07:20:32;99970.13;;;11.09;77.24
4972;BME280;2501;51.214;6.768;2022-12-29T07:23:02;99975.50;;;10.97;77.63
4972;BME280;2501;51.214;6.768;2022-12-29T07:25:31;99967.63;;;10.99;77.70
4972;BME280;2501;51.214;6.768;2022-12-29T07:28:00;99974.69;;;10.91;77.89
4972;BME280;2501;51.214;6.768;2022-12-29T07:30:28;99966.75;;;10.97;77.55
4972;BME280;2501;51.214;6.768;2022-12-29T07:32:57;99976.38;;;10.95;77.22
4972;BME280;2501;51.214;6.768;2022-12-29T07:35:28;99992.97;;;11.03;76.93
4972;BME280;2501;51.214;6.768;2022-12-29T07:37:56;99997.34;;;10.99;76.73
4972;BME280;2501;51.214;6.768;2022-12-29T07:40:25;99992.88;;;11.10;76.39
4972;BME280;2501;51.214;6.768;2022-12-29T07:42:53;100000.72;;;11.16;75.31
4972;BME280;2501;51.214;6.768;2022-12-29T07:45:21;99998.06;;;11.21;75.21
4972;BME280;2501;51.214;6.768;2022-12-29T07:47:50;100018.25;;;11.10;75.22
4972;BME280;2501;51.214;6.768;2022-12-29T07:50:21;100014.75;;;11.11;75.09
4972;BME280;2501;51.214;6.768;2022-12-29T07:52:52;100015.63;;;11.11;74.24
4972;BME280;2501;51.214;6.768;2022-12-29T07:55:21;100012.97;;;11.16;74.69
4972;BME280;2501;51.214;6.768;2022-12-29T07:57:49;100015.63;;;11.08;74.84
4972;BME280;2501;51.214;6.768;2022-12-29T08:00:18;100020.81;;;11.21;74.23
4972;BME280;2501;51.214;6.768;2022-12-29T08:02:46;100022.53;;;11.23;73.88
4972;BME280;2501;51.214;6.768;2022-12-29T08:05:15;100025.34;;;10.99;74.31
4972;BME280;2501;51.214;6.768;2022-12-29T08:07:44;100013.97;;;11.01;74.71
4972;BME280;2501;51.214;6.768;2022-12-29T08:10:16;100020.00;;;11.09;74.83
4972;BME280;2501;51.214;6.768;2022-12-29T08:12:44;100023.59;;;11.01;74.84
4972;BME280;2501;51.214;6.768;2022-12-29T08:15:13;100022.66;;;11.08;74.82
4972;BME280;2501;51.214;6.768;2022-12-29T08:17:41;100028.00;;;10.94;75.21
4972;BME280;2501;51.214;6.768;2022-12-29T08:20:10;100027.09;;;10.98;74.82
4972;BME280;2501;51.214;6.768;2022-12-29T08:22:39;100034.09;;;10.96;74.78
4972;BME280;2501;51.214;6.768;2022-12-29T08:25:08;100042.06;;;10.86;75.32
4972;BME280;2501;51.214;6.768;2022-12-29T08:27:39;100026.25;;;10.92;75.34
4972;BME280;2501;51.214;6.768;2022-12-29T08:30:09;100032.25;;;11.09;74.88
4972;BME280;2501;51.214;6.768;2022-12-29T08:32:37;100038.47;;;10.97;75.40
4972;BME280;2501;51.214;6.768;2022-12-29T08:35:07;100050.53;;;11.23;74.24
4972;BME280;2501;51.214;6.768;2022-12-29T08:37:35;100058.66;;;10.91;75.99
4972;BME280;2501;51.214;6.768;2022-12-29T08:40:05;100063.00;;;10.92;77.11
4972;BME280;2501;51.214;6.768;2022-12-29T08:42:34;100068.28;;;10.87;77.15
4972;BME280;2501;51.214;6.768;2022-12-29T08:45:06;100078.97;;;10.46;79.55
4972;BME280;2501;51.214;6.768;2022-12-29T08:47:35;100070.28;;;10.38;80.49
4972;BME280;2501;51.214;6.768;2022-12-29T08:50:04;100065.84;;;10.54;80.64
4972;BME280;2501;51.214;6.768;2022-12-29T08:52:33;100071.03;;;10.60;79.94
4972;BME280;2501;51.214;6.768;2022-12-29T08:55:01;100081.50;;;10.67;80.88
4972;BME280;2501;51.214;6.768;2022-12-29T08:57:30;100073.56;;;10.76;79.74
4972;BME280;2501;51.214;6.768;2022-12-29T08:59:58;100075.47;;;10.56;80.38
4972;BME280;2501;51.214;6.768;2022-12-29T09:02:29;100072.84;;;10.55;80.05
4972;BME280;2501;51.214;6.768;2022-12-29T09:04:57;100073.78;;;10.37;79.81
4972;BME280;2501;51.214;6.768;2022-12-29T09:07:26;100071.09;;;10.51;79.59
4972;BME280;2501;51.214;6.768;2022-12-29T09:09:54;100086.03;;;10.33;80.22
4972;BME280;2501;51.214;6.768;2022-12-29T09:12:23;100084.28;;;10.38;80.32
4972;BME280;2501;51.214;6.768;2022-12-29T09:14:51;100085.97;;;10.52;79.98
4972;BME280;2501;51.214;6.768;2022-12-29T09:17:19;100082.38;;;10.71;78.97
4972;BME280;2501;51.214;6.768;2022-12-29T09:20:04;100090.16;;;10.81;77.73
4972;BME280;2501;51.214;6.768;2022-12-29T09:22:37;100089.25;;;10.90;77.37
4972;BME280;2501;51.214;6.768;2022-12-29T09:25:06;100100.56;;;10.98;76.28
4972;BME280;2501;51.214;6.768;2022-12-29T09:27:34;100097.06;;;10.98;75.69
4972;BME280;2501;51.214;6.768;2022-12-29T09:30:06;100098.72;;;11.11;75.09
4972;BME280;2501;51.214;6.768;2022-12-29T09:32:35;100099.59;;;11.08;74.19
4972;BME280;2501;51.214;6.768;2022-12-29T09:35:07;100108.41;;;11.06;74.50
4972;BME280;2501;51.214;6.768;2022-12-29T09:37:37;100114.53;;;11.03;73.97
4972;BME280;2501;51.214;6.768;2022-12-29T09:40:06;100108.41;;;11.04;73.63
4972;BME280;2501;51.214;6.768;2022-12-29T09:42:38;100104.06;;;11.02;73.92
4972;BME280;2501;51.214;6.768;2022-12-29T09:45:13;100112.81;;;10.96;74.12
4972;BME280;2501;51.214;6.768;2022-12-29T09:47:44;100113.69;;;10.98;73.72
4972;BME280;2501;51.214;6.768;2022-12-29T09:50:21;100103.97;;;11.09;72.15
4972;BME280;2501;51.214;6.768;2022-12-29T09:52:58;100099.66;;;11.02;71.36
4972;BME280;2501;51.214;6.768;2022-12-29T09:55:36;100114.47;;;11.12;70.51
4972;BME280;2501;51.214;6.768;2022-12-29T09:58:13;100111.72;;;11.31;70.21
4972;BME280;2501;51.214;6.768;2022-12-29T10:00:49;100107.31;;;11.36;69.16
4972;BME280;2501;51.214;6.768;2022-12-29T10:03:21;100105.47;;;11.45;68.49
4972;BME280;2501;51.214;6.768;2022-12-29T10:05:57;100091.53;;;11.42;67.39
4972;BME280;2501;51.214;6.768;2022-12-29T10:08:34;100103.50;;;11.73;67.13
4972;BME280;2501;51.214;6.768;2022-12-29T10:11:14;100100.88;;;11.72;66.28
4972;BME280;2501;51.214;6.768;2022-12-29T10:14:04;100102.66;;;11.67;65.67
4972;BME280;2501;51.214;6.768;2022-12-29T10:16:42;100104.59;;;11.46;65.58
4972;BME280;2501;51.214;6.768;2022-12-29T10:19:46;100110.72;;;11.47;65.78
4972;BME280;2501;51.214;6.768;2022-12-29T10:22:38;100120.41;;;11.40;66.19
4972;BME280;2501;51.214;6.768;2022-12-29T10:25:13;100112.59;;;11.28;66.02
4972;BME280;2501;51.214;6.768;2022-12-29T10:27:44;100120.31;;;11.49;65.31
4972;BME280;2501;51.214;6.768;2022-12-29T10:30:15;100122.16;;;11.41;65.85
4972;BME280;2501;51.214;6.768;2022-12-29T10:32:49;100110.72;;;11.44;65.76
4972;BME280;2501;51.214;6.768;2022-12-29T10:35:22;100106.41;;;11.41;66.00
4972;BME280;2501;51.214;6.768;2022-12-29T10:37:59;100106.41;;;11.41;66.46
4972;BME280;2501;51.214;6.768;2022-12-29T10:40:32;100117.53;;;11.68;66.02
4972;BME280;2501;51.214;6.768;2022-12-29T10:43:12;100127.34;;;11.49;65.57
4972;BME280;2501;51.214;6.768;2022-12-29T10:45:47;100128.09;;;11.62;65.86
4972;BME280;2501;51.214;6.768;2022-12-29T10:48:19;100128.09;;;11.60;65.81
4972;BME280;2501;51.214;6.768;2022-12-29T10:50:50;100122.69;;;11.83;65.42
4972;BME280;2501;51.214;6.768;2022-12-29T10:53:24;100106.19;;;11.64;65.02
4972;BME280;2501;51.214;6.768;2022-12-29T10:55:55;100121.03;;;11.71;65.49
4972;BME280;2501;51.214;6.768;2022-12-29T10:58:25;100139.47;;;11.62;65.98
4972;BME280;2501;51.214;6.768;2022-12-29T11:00:54;100137.81;;;11.52;65.83
4972;BME280;2501;51.214;6.768;2022-12-29T11:03:43;100144.44;;;11.99;64.89
4972;BME280;2501;51.214;6.768;2022-12-29T11:06:18;100149.69;;;12.00;64.11
4972;BME280;2501;51.214;6.768;2022-12-29T11:08:55;100155.97;;;11.82;64.22
4972;BME280;2501;51.214;6.768;2022-12-29T11:11:26;100145.41;;;11.92;64.11
4972;BME280;2501;51.214;6.768;2022-12-29T11:13:57;100159.69;;;11.56;65.37
4972;BME280;2501;51.214;6.768;2022-12-29T11:16:31;100162.31;;;11.57;65.12
4972;BME280;2501;51.214;6.768;2022-12-29T11:19:00;100175.34;;;11.69;64.53
4972;BME280;2501;51.214;6.768;2022-12-29T11:21:33;100156.06;;;11.69;64.34
4972;BME280;2501;51.214;6.768;2022-12-29T11:24:19;100181.56;;;11.56;65.47
4972;BME280;2501;51.214;6.768;2022-12-29T11:26:49;100181.50;;;11.61;65.16
4972;BME280;2501;51.214;6.768;2022-12-29T11:29:27;100176.22;;;11.65;65.41
4972;BME280;2501;51.214;6.768;2022-12-29T11:31:58;100179.81;;;11.55;64.91
4972;BME280;2501;51.214;6.768;2022-12-29T11:34:31;100186.72;;;11.67;64.63
4972;BME280;2501;51.214;6.768;2022-12-29T11:37:03;100189.56;;;11.41;65.41
4972;BME280;2501;51.214;6.768;2022-12-29T11:39:50;100177.25;;;11.46;64.69
4972;BME280;2501;51.214;6.768;2022-12-29T11:42:23;100183.22;;;11.68;64.21
4972;BME280;2501;51.214;6.768;2022-12-29T11:44:52;100179.75;;;11.63;64.40
4972;BME280;2501;51.214;6.768;2022-12-29T11:47:26;100185.88;;;11.60;64.47
4972;BME280;2501;51.214;6.768;2022-12-29T11:49:59;100192.00;;;11.61;64.22
4972;BME280;2501;51.214;6.768;2022-12-29T11:52:31;100195.50;;;11.64;63.98
4972;BME280;2501;51.214;6.768;2022-12-29T11:55:05;100189.34;;;11.70;63.62
4972;BME280;2501;51.214;6.768;2022-12-29T11:57:35;100204.16;;;11.78;63.66
4972;BME280;2501;51.214;6.768;2022-12-29T12:00:14;100206.00;;;11.64;64.13
4972;BME280;2501;51.214;6.768;2022-12-29T12:02:50;100203.38;;;11.67;63.55
4972;BME280;2501;51.214;6.768;2022-12-29T12:05:23;100206.88;;;11.66;63.83
4972;BME280;2501;51.214;6.768;2022-12-29T12:07:56;100207.81;;;11.56;64.39
4972;BME280;2501;51.214;6.768;2022-12-29T12:10:33;100209.59;;;11.51;64.25
4972;BME280;2501;51.214;6.768;2022-12-29T12:13:16;100223.59;;;11.53;64.09
4972;BME280;2501;51.214;6.768;2022-12-29T12:15:49;100204.31;;;11.59;64.28
4972;BME280;2501;51.214;6.768;2022-12-29T12:18:32;100211.34;;;11.50;63.99
4972;BME280;2501;51.214;6.768;2022-12-29T12:21:09;100222.72;;;11.54;63.97
4972;BME280;2501;51.214;6.768;2022-12-29T12:23:45;100227.06;;;11.60;64.28
4972;BME280;2501;51.214;6.768;2022-12-29T12:26:21;100221.75;;;11.67;63.99
4972;BME280;2501;51.214;6.768;2022-12-29T12:28:52;100216.59;;;11.50;64.91
4972;BME280;2501;51.214;6.768;2022-12-29T12:31:35;100218.34;;;11.55;64.42
4972;BME280;2501;51.214;6.768;2022-12-29T12:34:13;100224.50;;;11.49;64.47
4972;BME280;2501;51.214;6.768;2022-12-29T12:37:12;100228.97;;;11.36;64.40
4972;BME280;2501;51.214;6.768;2022-12-29T12:39:49;100235.09;;;11.35;64.50
4972;BME280;2501;51.214;6.768;2022-12-29T12:42:34;100231.59;;;11.33;64.95
4972;BME280;2501;51.214;6.768;2022-12-29T12:48:17;100242.88;;;11.46;64.70
4972;BME280;2501;51.214;6.768;2022-12-29T12:50:55;100237.78;;;11.20;65.76
4972;BME280;2501;51.214;6.768;2022-12-29T12:53:44;100227.31;;;11.12;65.95
4972;BME280;2501;51.214;6.768;2022-12-29T12:56:31;100235.94;;;11.42;64.65
4972;BME280;2501;51.214;6.768;2022-12-29T12:59:17;100244.72;;;11.30;64.50
4972;BME280;2501;51.214;6.768;2022-12-29T13:01:58;100245.66;;;11.22;64.69
4972;BME280;2501;51.214;6.768;2022-12-29T13:04:40;100249.06;;;11.39;64.94
4972;BME280;2501;51.214;6.768;2022-12-29T13:07:20;100261.50;;;11.02;65.86
4972;BME280;2501;51.214;6.768;2022-12-29T13:10:08;100261.50;;;11.02;66.71
4972;BME280;2501;51.214;6.768;2022-12-29T13:12:49;100257.03;;;11.21;67.18
4972;BME280;2501;51.214;6.768;2022-12-29T13:15:38;100277.19;;;11.11;67.17
4972;BME280;2501;51.214;6.768;2022-12-29T13:18:17;100273.75;;;11.01;67.24
4972;BME280;2501;51.214;6.768;2022-12-29T13:20:54;100278.06;;;11.13;66.77
4972;BME280;2501;51.214;6.768;2022-12-29T13:23:31;100268.34;;;11.38;66.09
4972;BME280;2501;51.214;6.768;2022-12-29T13:26:08;100263.09;;;11.30;66.26
4972;BME280;2501;51.214;6.768;2022-12-29T13:28:49;100265.75;;;11.27;65.92
4972;BME280;2501;51.214;6.768;2022-12-29T13:31:29;100271.84;;;11.38;65.43
4972;BME280;2501;51.214;6.768;2022-12-29T13:34:04;100261.34;;;11.31;65.56
4972;BME280;2501;51.214;6.768;2022-12-29T13:36:40;100266.59;;;11.31;65.84
4972;BME280;2501;51.214;6.768;2022-12-29T13:39:13;100266.63;;;11.28;66.26
4972;BME280;2501;51.214;6.768;2022-12-29T13:41:48;100257.06;;;11.08;66.92
4972;BME280;2501;51.214;6.768;2022-12-29T13:44:22;100265.75;;;11.26;65.74
4972;BME280;2501;51.214;6.768;2022-12-29T13:46:56;100261.41;;;11.22;64.93
4972;BME280;2501;51.214;6.768;2022-12-29T13:49:27;100272.00;;;10.99;65.93
4972;BME280;2501;51.214;6.768;2022-12-29T13:51:58;100275.44;;;11.13;65.47